createdAt,value
2023-05-02T00:00:17.844Z,14.80
2023-05-02T00:03:04.705Z,15.57
2023-05-02T00:05:51.672Z,14.52
2023-05-02T00:08:38.693Z,15.30
2023-05-02T00:11:25.627Z,14.38
2023-05-02T00:14:06.064Z,15.15
2023-05-02T00:16:52.819Z,15.65
2023-05-02T00:19:32.997Z,15.80
2023-05-02T00:22:19.611Z,15.35
2023-05-02T00:25:06.823Z,16.00
2023-05-02T00:27:46.805Z,15.10
2023-05-02T00:30:33.897Z,15.07
2023-05-02T00:33:13.687Z,16.58
2023-05-02T00:36:00.584Z,17.42
2023-05-02T00:38:40.810Z,16.80
2023-05-02T00:41:27.655Z,18.85
2023-05-02T00:44:08.527Z,16.65
2023-05-02T00:46:55.645Z,18.30
2023-05-02T00:49:42.583Z,17.20
2023-05-02T00:52:29.740Z,17.23
2023-05-02T00:55:10.528Z,16.45
2023-05-02T00:57:50.953Z,16.45
2023-05-02T01:00:44.610Z,17.05
2023-05-02T01:03:49.866Z,16.17
2023-05-02T01:07:00.579Z,16.83
2023-05-02T01:10:03.130Z,17.30
2023-05-02T01:13:00.597Z,18.50
2023-05-02T01:15:48.672Z,18.38
2023-05-02T01:18:31.673Z,17.80
2023-05-02T01:21:19.555Z,16.45
2023-05-02T01:24:04.755Z,17.92
2023-05-02T01:27:09.526Z,16.10
2023-05-02T01:29:58.880Z,15.95
2023-05-02T01:32:41.900Z,14.88
2023-05-02T01:35:30.491Z,15.63
2023-05-02T01:38:21.554Z,15.02
2023-05-02T01:41:13.551Z,14.95
2023-05-02T01:44:02.672Z,15.98
2023-05-02T01:46:53.603Z,14.65
2023-05-02T01:49:35.554Z,14.52
2023-05-02T01:52:27.482Z,14.30
2023-05-02T01:55:11.011Z,14.10
2023-05-02T01:58:01.546Z,14.82
2023-05-02T02:00:51.507Z,14.82
2023-05-02T02:03:32.673Z,15.07
2023-05-02T02:06:21.567Z,15.75
2023-05-02T02:09:01.609Z,16.13
2023-05-02T02:11:58.504Z,15.25
2023-05-02T02:14:52.830Z,15.40
2023-05-02T02:17:46.511Z,15.52
2023-05-02T02:20:35.434Z,15.10
2023-05-02T02:23:18.446Z,14.77
2023-05-02T02:26:07.473Z,15.15
2023-05-02T02:28:49.069Z,15.35
2023-05-02T02:31:35.533Z,13.88
2023-05-02T02:34:22.465Z,14.52
2023-05-02T02:37:22.471Z,14.63
2023-05-02T02:40:33.492Z,14.15
2023-05-02T02:43:31.404Z,14.73
2023-05-02T02:46:29.652Z,14.93
2023-05-02T02:49:46.458Z,14.32
2023-05-02T02:52:52.439Z,15.27
2023-05-02T02:58:28.440Z,14.82
2023-05-02T03:01:15.057Z,15.18
2023-05-02T03:04:03.453Z,15.32
2023-05-02T03:06:50.510Z,14.65
2023-05-02T03:09:33.699Z,14.80
2023-05-02T03:12:21.460Z,15.10
2023-05-02T03:15:26.497Z,15.35
2023-05-02T03:18:13.449Z,15.85
2023-05-02T03:21:00.387Z,18.05
2023-05-02T03:23:47.379Z,17.65
2023-05-02T03:26:34.407Z,16.83
2023-05-02T03:29:16.778Z,16.83
2023-05-02T03:32:03.428Z,16.50
2023-05-02T03:34:51.393Z,17.50
2023-05-02T03:37:36.499Z,25.73
2023-05-02T03:40:23.436Z,16.42
2023-05-02T03:43:11.345Z,16.55
2023-05-02T03:45:51.917Z,16.70
2023-05-02T03:48:38.329Z,16.45
2023-05-02T03:51:18.698Z,19.75
2023-05-02T03:54:09.297Z,17.00
2023-05-02T03:56:56.379Z,17.95
2023-05-02T03:59:49.382Z,17.25
2023-05-02T04:02:33.695Z,17.35
2023-05-02T04:05:24.310Z,17.52
2023-05-02T04:08:04.880Z,21.23
2023-05-02T04:10:51.335Z,25.48
2023-05-02T04:13:38.282Z,19.65
2023-05-02T04:16:25.397Z,18.73
2023-05-02T04:19:12.325Z,18.40
2023-05-02T04:21:59.303Z,19.92
2023-05-02T04:24:50.316Z,19.63
2023-05-02T04:27:39.290Z,18.60
2023-05-02T04:30:29.268Z,18.30
2023-05-02T04:33:14.454Z,17.10
2023-05-02T04:36:01.348Z,23.45
2023-05-02T04:38:41.476Z,18.52
2023-05-02T04:41:30.275Z,19.45
2023-05-02T04:44:13.396Z,20.20
2023-05-02T04:47:00.309Z,23.60
2023-05-02T04:49:47.311Z,18.80
2023-05-02T04:52:27.767Z,21.63
2023-05-02T04:55:14.308Z,19.92
2023-05-02T04:57:54.645Z,20.58
2023-05-02T05:00:42.290Z,22.80
2023-05-02T05:03:22.909Z,23.77
2023-05-02T05:06:11.292Z,22.92
2023-05-02T05:08:58.235Z,22.92
2023-05-02T05:11:42.864Z,24.75
2023-05-02T05:14:31.216Z,25.05
2023-05-02T05:17:11.405Z,25.95
2023-05-02T05:19:58.433Z,28.92
2023-05-02T05:22:38.560Z,30.33
2023-05-02T05:25:26.227Z,31.50
2023-05-02T05:28:08.342Z,32.97
2023-05-02T05:30:55.248Z,34.35
2023-05-02T05:33:35.402Z,35.95
2023-05-02T05:36:24.270Z,32.33
2023-05-02T05:39:04.433Z,32.00
2023-05-02T05:41:53.215Z,31.85
2023-05-02T05:44:41.249Z,31.08
2023-05-02T05:47:22.770Z,29.70
2023-05-02T05:50:03.512Z,28.77
2023-05-02T05:52:44.436Z,29.55
2023-05-02T05:55:31.248Z,23.90
2023-05-02T05:58:12.287Z,20.33
2023-05-02T06:00:59.184Z,18.65
2023-05-02T06:03:46.247Z,20.45
2023-05-02T06:06:27.634Z,20.08
2023-05-02T06:09:14.191Z,22.30
2023-05-02T06:12:01.173Z,20.83
2023-05-02T06:14:42.356Z,20.98
2023-05-02T06:17:29.233Z,21.38
2023-05-02T06:20:09.490Z,22.42
2023-05-02T06:22:56.217Z,21.20
2023-05-02T06:25:36.230Z,21.77
2023-05-02T06:28:23.150Z,22.98
2023-05-02T06:31:11.340Z,21.35
2023-05-02T06:33:59.211Z,24.50
2023-05-02T06:36:39.353Z,24.50
2023-05-02T06:39:26.208Z,25.40
2023-05-02T06:42:20.154Z,24.48
2023-05-02T06:45:00.736Z,25.73
2023-05-02T06:47:47.598Z,24.92
2023-05-02T06:50:29.706Z,23.67
2023-05-02T06:53:18.105Z,24.98
2023-05-02T06:55:58.734Z,25.10
2023-05-02T06:58:45.151Z,27.00
2023-05-02T07:01:25.683Z,27.58
2023-05-02T07:04:12.165Z,28.08
2023-05-02T07:06:52.698Z,28.02
2023-05-02T07:09:33.126Z,25.35
2023-05-02T07:12:20.140Z,28.10
2023-05-02T07:15:00.619Z,24.05
2023-05-02T07:17:47.105Z,26.10
2023-05-02T07:20:34.094Z,24.10
2023-05-02T07:23:14.287Z,23.95
2023-05-02T07:40:10.937Z,21.13
2023-05-02T07:42:57.960Z,21.58
2023-05-02T07:45:44.966Z,16.75
2023-05-02T07:48:27.619Z,17.00
2023-05-02T07:51:22.953Z,16.08
2023-05-02T07:54:03.269Z,15.90
2023-05-02T07:56:50.001Z,17.23
2023-05-02T07:59:31.290Z,16.05
2023-05-02T08:02:20.115Z,15.70
2023-05-02T08:05:00.459Z,15.90
2023-05-02T08:07:46.919Z,15.98
2023-05-02T08:10:27.931Z,15.77
2023-05-02T08:13:14.929Z,15.95
2023-05-02T08:15:58.595Z,17.50
2023-05-02T08:21:27.714Z,15.15
2023-05-02T08:24:14.952Z,15.25
2023-05-02T08:26:55.305Z,16.85
2023-05-02T08:29:41.948Z,15.93
2023-05-02T08:32:22.878Z,14.65
2023-05-02T08:35:09.964Z,15.13
2023-05-02T08:37:56.932Z,15.80
2023-05-02T08:40:43.423Z,15.80
2023-05-02T08:43:29.957Z,15.75
2023-05-02T08:46:18.982Z,16.10
2023-05-02T08:49:00.196Z,16.08
2023-05-02T08:51:48.909Z,15.63
2023-05-02T08:54:29.510Z,14.70
2023-05-02T08:57:17.871Z,15.15
2023-05-02T09:00:05.908Z,15.57
2023-05-02T09:03:09.076Z,16.42
2023-05-02T09:06:03.884Z,17.15
2023-05-02T09:08:50.917Z,16.75
2023-05-02T09:11:31.502Z,17.77
2023-05-02T09:14:27.858Z,16.88
2023-05-02T09:17:08.265Z,18.45
2023-05-02T09:19:54.901Z,16.73
2023-05-02T09:22:35.473Z,17.42
2023-05-02T09:25:21.848Z,17.60
2023-05-02T09:28:02.524Z,17.63
2023-05-02T09:30:48.931Z,17.27
2023-05-02T09:33:29.240Z,17.02
2023-05-02T09:36:15.873Z,16.50
2023-05-02T09:39:25.817Z,17.33
2023-05-02T09:42:06.413Z,17.15
2023-05-02T09:44:53.823Z,17.45
2023-05-02T09:47:34.413Z,17.63
2023-05-02T09:50:20.876Z,18.52
2023-05-02T09:53:11.819Z,17.52
2023-05-02T09:55:58.842Z,18.50
2023-05-02T09:58:45.857Z,18.48
2023-05-02T10:01:26.117Z,17.98
2023-05-02T10:04:14.245Z,18.60
2023-05-02T10:06:56.240Z,19.23
2023-05-02T10:09:43.813Z,19.20
2023-05-02T10:12:36.876Z,19.45
2023-05-02T10:15:21.102Z,19.83
2023-05-02T10:18:11.866Z,19.35
2023-05-02T10:21:18.779Z,18.60
2023-05-02T10:24:05.786Z,19.75
2023-05-02T10:26:53.802Z,17.67
2023-05-02T10:29:36.158Z,20.05
2023-05-02T10:32:24.826Z,19.02
2023-05-02T10:35:09.886Z,18.33
2023-05-02T10:37:57.828Z,18.50
2023-05-02T10:40:44.827Z,18.08
2023-05-02T10:43:28.844Z,17.95
2023-05-02T10:46:15.794Z,19.08
2023-05-02T10:49:13.764Z,18.60
2023-05-02T10:51:54.094Z,16.60
2023-05-02T10:54:41.746Z,17.63
2023-05-02T10:57:22.009Z,17.65
2023-05-02T11:00:28.745Z,17.05
2023-05-02T11:03:15.833Z,17.40
2023-05-02T11:06:09.874Z,17.50
2023-05-02T11:08:56.749Z,18.20
2023-05-02T11:11:52.831Z,18.05
2023-05-02T11:14:32.723Z,18.33
2023-05-02T11:17:20.801Z,17.80
2023-05-02T11:20:10.769Z,17.15
2023-05-02T11:22:51.892Z,17.48
2023-05-02T11:25:50.762Z,17.15
2023-05-02T11:28:43.745Z,17.58
2023-05-02T11:31:35.909Z,17.50
2023-05-02T11:34:22.727Z,17.40
2023-05-02T11:37:02.884Z,17.40
2023-05-02T11:39:49.697Z,16.90
2023-05-02T11:42:47.672Z,16.38
2023-05-02T11:45:42.805Z,16.80
2023-05-02T11:48:33.721Z,16.90
2023-05-02T11:51:14.145Z,18.33
2023-05-02T11:54:00.718Z,17.20
2023-05-02T11:56:41.381Z,16.48
2023-05-02T11:59:27.706Z,16.80
2023-05-02T12:02:14.814Z,16.13
2023-05-02T12:04:54.705Z,16.17
2023-05-02T12:07:44.977Z,16.58
2023-05-02T12:10:31.749Z,16.33
2023-05-02T12:13:12.193Z,15.63
2023-05-02T12:15:58.777Z,15.85
2023-05-02T12:18:39.303Z,15.73
2023-05-02T12:21:25.621Z,15.50
2023-05-02T12:24:12.710Z,14.90
2023-05-02T12:26:53.028Z,14.65
2023-05-02T12:30:05.831Z,14.55
2023-05-02T12:32:46.014Z,14.52
2023-05-02T12:35:32.673Z,14.57
2023-05-02T12:38:37.663Z,14.90
2023-05-02T12:44:05.659Z,14.80
2023-05-02T12:47:07.763Z,14.40
2023-05-02T12:50:08.707Z,15.15
2023-05-02T12:52:57.685Z,15.07
2023-05-02T12:55:44.633Z,14.70
2023-05-02T12:58:26.713Z,15.15
2023-05-02T13:01:13.790Z,14.85
2023-05-02T13:04:00.805Z,14.43
2023-05-02T13:06:40.951Z,15.32
2023-05-02T13:09:27.599Z,14.45
2023-05-02T13:12:08.056Z,14.52
2023-05-02T13:14:54.688Z,15.05
2023-05-02T13:17:34.977Z,15.75
2023-05-02T13:20:21.617Z,14.70
2023-05-02T13:23:01.729Z,14.25
2023-05-02T13:25:48.635Z,14.65
2023-05-02T13:28:33.809Z,15.63
2023-05-02T13:31:20.644Z,14.85
2023-05-02T13:34:07.627Z,14.93
2023-05-02T13:36:48.073Z,15.02
2023-05-02T13:39:34.622Z,14.55
2023-05-02T13:42:15.009Z,14.80
2023-05-02T13:45:01.561Z,14.43
2023-05-02T13:47:48.808Z,14.35
2023-05-02T13:50:28.575Z,15.70
2023-05-02T13:53:08.963Z,14.55
2023-05-02T13:55:55.608Z,15.27
2023-05-02T13:58:36.106Z,14.57
2023-05-02T14:01:22.689Z,14.48
2023-05-02T14:04:08.622Z,14.77
2023-05-02T14:06:55.620Z,15.02
2023-05-02T14:09:42.534Z,14.32
2023-05-02T14:12:22.690Z,14.40
2023-05-02T14:15:09.585Z,14.90
2023-05-02T14:17:49.647Z,15.40
2023-05-02T14:20:36.511Z,14.65
2023-05-02T14:23:16.715Z,15.57
2023-05-02T14:26:03.551Z,15.45
2023-05-02T14:28:43.621Z,14.75
2023-05-02T14:31:30.640Z,15.52
2023-05-02T14:34:10.791Z,15.13
2023-05-02T14:36:57.545Z,15.10
2023-05-02T14:39:54.953Z,15.00
2023-05-02T14:42:34.882Z,15.02
2023-05-02T14:45:22.561Z,14.95
2023-05-02T14:48:09.647Z,14.63
2023-05-02T14:50:50.762Z,15.68
2023-05-02T14:53:37.532Z,15.90
2023-05-02T14:56:21.177Z,15.73
2023-05-02T14:59:08.524Z,15.93
2023-05-02T15:01:48.782Z,15.40
2023-05-02T15:04:36.557Z,15.40
2023-05-02T15:07:23.707Z,15.50
2023-05-02T15:10:04.360Z,14.48
2023-05-02T15:12:52.524Z,15.52
2023-05-02T15:15:39.490Z,15.80
2023-05-02T15:18:26.577Z,15.43
2023-05-02T15:21:06.993Z,15.50
2023-05-02T15:23:53.499Z,15.20
2023-05-02T15:26:33.960Z,15.48
2023-05-02T15:29:20.499Z,15.80
2023-05-02T15:32:07.697Z,16.23
2023-05-02T15:34:47.490Z,16.90
2023-05-02T15:37:41.458Z,16.45
2023-05-02T15:40:28.480Z,18.00
2023-05-02T15:43:15.443Z,15.35
2023-05-02T15:45:58.436Z,15.57
2023-05-02T15:48:46.491Z,15.48
2023-05-02T15:51:27.115Z,17.00
2023-05-02T15:54:14.463Z,14.82
2023-05-02T15:56:55.248Z,15.73
2023-05-02T15:59:42.491Z,16.35
2023-05-02T16:02:22.907Z,19.05
2023-05-02T16:05:09.445Z,16.27
2023-05-02T16:07:56.380Z,14.73
2023-05-02T16:10:39.250Z,14.50
2023-05-02T16:13:26.459Z,15.90
2023-05-02T16:16:14.434Z,14.77
2023-05-02T16:19:01.448Z,14.63
2023-05-02T16:21:42.134Z,15.27
2023-05-02T16:24:29.402Z,15.15
2023-05-02T16:27:16.386Z,15.10
2023-05-02T16:29:57.403Z,15.10
2023-05-02T16:32:44.448Z,15.82
2023-05-02T16:35:24.797Z,15.93
2023-05-02T16:38:11.417Z,16.52
2023-05-02T16:40:58.545Z,15.73
2023-05-02T16:43:38.427Z,15.30
2023-05-02T16:46:18.875Z,15.25
2023-05-02T16:49:05.371Z,16.52
2023-05-02T16:51:48.961Z,16.90
2023-05-02T16:54:35.400Z,17.17
2023-05-02T16:57:21.060Z,16.60
2023-05-02T17:00:07.383Z,17.08
2023-05-02T17:02:47.986Z,16.63
2023-05-02T17:05:34.365Z,16.98
2023-05-02T17:08:16.889Z,17.02
2023-05-02T17:11:03.344Z,16.98
2023-05-02T17:13:50.333Z,16.25
2023-05-02T17:16:30.529Z,16.00
2023-05-02T17:19:17.328Z,16.00
2023-05-02T17:21:58.535Z,16.55
2023-05-02T17:24:45.327Z,18.40
2023-05-02T17:27:25.470Z,16.13
2023-05-02T17:30:13.330Z,16.35
2023-05-02T17:33:00.450Z,18.73
2023-05-02T17:35:47.311Z,16.85
2023-05-02T17:38:27.540Z,17.88
2023-05-02T17:41:14.321Z,17.35
2023-05-02T17:43:54.401Z,18.90
2023-05-02T17:46:41.340Z,17.08
2023-05-02T17:49:21.961Z,16.25
2023-05-02T17:52:08.282Z,14.63
2023-05-02T17:54:55.313Z,15.43
2023-05-02T17:57:35.779Z,15.60
2023-05-02T18:00:23.282Z,18.50
2023-05-02T18:03:03.912Z,17.95
2023-05-02T18:05:54.274Z,15.88
2023-05-02T18:08:34.830Z,16.58
2023-05-02T18:11:29.255Z,17.33
2023-05-02T18:16:56.244Z,18.17
2023-05-02T18:19:43.309Z,12.57
2023-05-02T18:22:23.471Z,16.50
2023-05-02T18:25:11.311Z,13.52
2023-05-02T18:27:51.413Z,12.45
2023-05-02T18:30:38.311Z,12.93
2023-05-02T18:33:18.432Z,12.02
2023-05-02T18:36:05.229Z,16.10
2023-05-02T18:38:45.382Z,18.08
2023-05-02T18:41:32.245Z,13.95
2023-05-02T18:44:13.437Z,17.60
2023-05-02T18:47:00.258Z,20.95
2023-05-02T18:49:48.234Z,14.88
2023-05-02T18:52:30.491Z,16.52
2023-05-02T18:55:18.226Z,13.57
2023-05-02T18:57:58.719Z,15.93
2023-05-02T19:00:45.241Z,16.88
2023-05-02T19:03:26.895Z,14.27
2023-05-02T19:06:14.258Z,15.45
2023-05-02T19:08:54.583Z,19.67
2023-05-02T19:11:41.262Z,17.63
2023-05-02T19:14:21.565Z,15.68
2023-05-02T19:17:08.202Z,18.73
2023-05-02T19:19:50.993Z,20.42
2023-05-02T19:22:41.204Z,16.35
2023-05-02T19:25:35.204Z,17.35
2023-05-02T19:28:25.134Z,17.27
2023-05-02T19:41:56.684Z,19.33
2023-05-02T19:44:37.063Z,19.60
2023-05-02T19:47:23.730Z,20.02
2023-05-02T19:50:10.710Z,20.27
2023-05-02T19:52:57.678Z,19.30
2023-05-02T19:55:44.765Z,18.13
2023-05-02T19:58:24.795Z,22.23
2023-05-02T20:01:11.711Z,19.33
2023-05-02T20:03:58.748Z,22.15
2023-05-02T20:06:39.100Z,21.35
2023-05-02T20:09:25.688Z,20.00
2023-05-02T20:12:06.216Z,16.98
2023-05-02T20:14:52.598Z,17.90
2023-05-02T20:17:39.681Z,21.02
2023-05-02T20:20:26.687Z,25.15
2023-05-02T20:23:07.074Z,18.30
2023-05-02T20:25:53.652Z,19.67
2023-05-02T20:28:34.014Z,17.35
2023-05-02T20:31:20.652Z,21.98
2023-05-02T20:34:01.151Z,18.45
2023-05-02T20:36:47.623Z,18.27
2023-05-02T20:39:41.566Z,23.23
2023-05-02T20:42:32.677Z,21.25
2023-05-02T20:45:14.093Z,21.15
2023-05-02T20:48:00.722Z,22.55
2023-05-02T20:50:47.619Z,18.05
2023-05-02T20:53:34.631Z,21.70
2023-05-02T20:56:21.601Z,16.65
2023-05-02T20:59:01.950Z,20.00
2023-05-02T21:01:48.596Z,17.42
2023-05-02T21:04:29.050Z,15.30
2023-05-02T21:07:16.609Z,17.55
2023-05-02T21:09:57.062Z,18.02
2023-05-02T21:12:43.551Z,25.27
2023-05-02T21:15:30.613Z,21.05
2023-05-02T21:18:18.596Z,18.23
2023-05-02T21:21:05.562Z,19.00
2023-05-02T21:23:52.535Z,18.42
2023-05-02T21:26:32.927Z,20.45
2023-05-02T21:29:20.597Z,18.80
2023-05-02T21:32:01.095Z,21.50
2023-05-02T21:34:47.609Z,19.52
2023-05-02T21:37:27.934Z,20.65
2023-05-02T21:40:14.499Z,22.30
2023-05-02T21:42:54.987Z,22.15
2023-05-02T21:45:41.523Z,22.50
2023-05-02T21:48:21.914Z,23.55
2023-05-02T21:51:08.579Z,23.63
2023-05-02T21:53:49.301Z,24.00
2023-05-02T21:56:36.731Z,22.75
2023-05-02T21:59:16.932Z,20.92
2023-05-02T22:02:03.563Z,24.23
2023-05-02T22:04:47.535Z,19.83
2023-05-02T22:07:34.540Z,20.85
2023-05-02T22:10:15.360Z,23.30
2023-05-02T22:13:02.532Z,22.15
2023-05-02T22:15:50.953Z,21.10
2023-05-02T22:18:30.519Z,18.50
2023-05-02T22:21:20.470Z,19.13
2023-05-02T22:24:00.852Z,24.98
2023-05-02T22:26:47.534Z,18.65
2023-05-02T22:29:27.617Z,18.50
2023-05-02T22:32:14.554Z,18.92
2023-05-02T22:34:54.539Z,15.52
2023-05-02T22:37:41.445Z,15.52
2023-05-02T22:40:28.450Z,22.00
2023-05-02T22:43:15.492Z,18.42
2023-05-02T22:46:02.509Z,17.20
2023-05-02T22:48:42.910Z,16.65
2023-05-02T22:51:29.445Z,23.38
2023-05-02T22:54:10.330Z,18.65
2023-05-02T22:56:57.455Z,19.63
2023-05-02T22:59:44.505Z,17.33
2023-05-02T23:02:24.540Z,24.08
2023-05-02T23:05:13.426Z,21.52
2023-05-02T23:07:53.502Z,17.75
2023-05-02T23:10:40.438Z,18.35
2023-05-02T23:13:20.820Z,20.60
2023-05-02T23:16:08.450Z,18.40
2023-05-02T23:18:55.429Z,20.65
2023-05-02T23:21:42.402Z,18.45
2023-05-02T23:24:29.374Z,18.77
2023-05-02T23:27:09.866Z,18.73
2023-05-02T23:29:56.405Z,19.70
2023-05-02T23:32:43.467Z,17.83
2023-05-02T23:35:23.488Z,20.35
2023-05-02T23:38:14.401Z,20.23
2023-05-02T23:41:01.448Z,17.38
2023-05-02T23:43:41.406Z,20.13
2023-05-02T23:46:28.382Z,22.38
2023-05-02T23:49:15.441Z,16.55
2023-05-02T23:52:02.354Z,16.70
2023-05-02T23:54:42.497Z,15.50
2023-05-02T23:57:29.412Z,15.15
